Time;durP1;ratioP1;P1;durP2;ratioP2;P2;SDS_P1;SDS_P2;PMS_P1;PMS_P2;Temp;Humidity;BMP_temperature;BMP_pressure;BME280_temperature;BME280_humidity;BME280_pressure;Samples;Min_cycle;Max_cycle;Signal;HPM_P1;HPM_P2
2021/05/08 00:00:05;;;;;;;8.00;3.53;;;;;;;;;;4970054;28;20026;-57
2021/05/08 00:02:33;;;;;;;8.10;4.40;;;;;;;;;;4973382;28;20037;-56
2021/05/08 00:05:01;;;;;;;8.65;4.22;;;;;;;;;;4972126;28;20038;-57
2021/05/08 00:07:26;;;;;;;10.30;4.75;;;;;;;;;;4986302;28;20053;-56
2021/05/08 00:09:54;;;;;;;16.45;4.13;;;;;;;;;;4987033;28;20043;-56
2021/05/08 00:12:19;;;;;;;14.73;3.63;;;;;;;;;;4971369;28;20115;-56
2021/05/08 00:14:45;;;;;;;14.77;4.20;;;;;;;;;;4972316;28;20022;-56
2021/05/08 00:17:11;;;;;;;9.50;4.20;;;;;;;;;;4970326;28;20026;-56
2021/05/08 00:19:36;;;;;;;9.90;3.75;;;;;;;;;;4970708;28;20034;-55
2021/05/08 00:22:04;;;;;;;13.45;4.43;;;;;;;;;;4972757;28;20108;-57
2021/05/08 00:24:30;;;;;;;13.43;4.45;;;;;;;;;;4969722;28;20129;-57
2021/05/08 00:26:55;;;;;;;18.13;4.97;;;;;;;;;;4971923;28;20030;-57
2021/05/08 00:29:20;;;;;;;22.50;5.30;;;;;;;;;;4956947;28;20196;-56
2021/05/08 00:31:46;;;;;;;13.15;5.35;;;;;;;;;;4970420;28;20034;-57
2021/05/08 00:34:14;;;;;;;14.63;4.68;;;;;;;;;;4970709;28;20792;-56
2021/05/08 00:36:39;;;;;;;14.55;4.47;;;;;;;;;;4957021;28;20046;-57
2021/05/08 00:39:05;;;;;;;13.18;4.78;;;;;;;;;;4969653;28;20034;-55
2021/05/08 00:41:31;;;;;;;13.90;4.53;;;;;;;;;;4971912;28;20026;-56
2021/05/08 00:43:57;;;;;;;18.77;5.90;;;;;;;;;;4971095;28;20046;-56
2021/05/08 00:46:26;;;;;;;12.13;5.75;;;;;;;;;;4973509;28;20394;-57
2021/05/08 00:48:57;;;;;;;14.68;5.07;;;;;;;;;;4972573;28;22148;-56
2021/05/08 00:51:22;;;;;;;12.18;4.70;;;;;;;;;;4988229;28;20073;-60
2021/05/08 00:53:53;;;;;;;18.48;6.43;;;;;;;;;;4971282;28;20125;-56
2021/05/08 00:56:21;;;;;;;13.45;4.47;;;;;;;;;;4969733;28;20033;-56
2021/05/08 00:58:47;;;;;;;19.73;5.93;;;;;;;;;;4971171;28;21018;-55
2021/05/08 01:01:12;;;;;;;18.75;5.40;;;;;;;;;;4955084;28;20124;-57
2021/05/08 01:03:38;;;;;;;14.25;5.05;;;;;;;;;;4971579;28;20038;-58
2021/05/08 01:06:04;;;;;;;15.73;3.97;;;;;;;;;;4970709;28;20038;-55
2021/05/08 01:08:32;;;;;;;11.55;4.80;;;;;;;;;;4970431;28;20026;-56
2021/05/08 01:11:03;;;;;;;11.85;4.93;;;;;;;;;;4970704;28;20045;-55
2021/05/08 01:13:29;;;;;;;10.90;5.15;;;;;;;;;;4971949;28;20045;-56
2021/05/08 01:15:55;;;;;;;9.10;4.85;;;;;;;;;;4970935;28;20383;-56
2021/05/08 01:18:23;;;;;;;10.63;5.00;;;;;;;;;;4954340;28;20128;-57
2021/05/08 01:20:49;;;;;;;11.55;4.57;;;;;;;;;;4968980;28;20134;-56
2021/05/08 01:23:16;;;;;;;16.85;4.88;;;;;;;;;;4970764;28;20875;-56
2021/05/08 01:25:41;;;;;;;10.95;5.10;;;;;;;;;;4967987;28;20046;-55
2021/05/08 01:28:11;;;;;;;6.53;3.85;;;;;;;;;;4970228;28;20070;-54
2021/05/08 01:30:37;;;;;;;10.90;4.38;;;;;;;;;;4969206;28;20038;-55
2021/05/08 01:33:04;;;;;;;8.75;4.72;;;;;;;;;;4969912;28;20083;-54
2021/05/08 01:35:30;;;;;;;12.30;4.00;;;;;;;;;;4969027;28;20072;-55
2021/05/08 01:37:56;;;;;;;16.38;4.78;;;;;;;;;;4967855;28;20042;-57
2021/05/08 01:40:28;;;;;;;16.02;4.45;;;;;;;;;;4968535;28;20687;-56
2021/05/08 01:42:54;;;;;;;12.43;4.53;;;;;;;;;;4970027;28;20148;-57
2021/05/08 01:45:23;;;;;;;13.38;4.90;;;;;;;;;;4969426;28;20096;-57
2021/05/08 01:47:49;;;;;;;11.00;4.55;;;;;;;;;;4971131;28;20987;-57
2021/05/08 01:50:19;;;;;;;13.85;4.72;;;;;;;;;;4969688;28;20081;-55
2021/05/08 01:52:45;;;;;;;8.65;4.18;;;;;;;;;;4970757;28;20053;-56
2021/05/08 01:55:13;;;;;;;8.15;4.20;;;;;;;;;;4968058;28;20026;-56
2021/05/08 01:57:49;;;;;;;7.32;4.05;;;;;;;;;;4967572;28;20583;-56
2021/05/08 02:00:22;;;;;;;9.25;4.45;;;;;;;;;;4968326;28;20033;-56
2021/05/08 02:02:50;;;;;;;8.60;5.32;;;;;;;;;;4970095;28;20666;-55
2021/05/08 02:05:15;;;;;;;11.35;4.55;;;;;;;;;;4968799;28;20137;-56
2021/05/08 02:07:41;;;;;;;8.75;5.30;;;;;;;;;;4970000;28;20042;-57
2021/05/08 02:10:07;;;;;;;14.65;4.07;;;;;;;;;;4965336;28;20042;-55
2021/05/08 02:12:37;;;;;;;11.25;4.80;;;;;;;;;;4968706;28;20045;-56
2021/05/08 02:15:05;;;;;;;8.07;4.13;;;;;;;;;;4968834;28;20026;-56
2021/05/08 02:17:31;;;;;;;15.70;4.68;;;;;;;;;;4953159;28;20048;-56
2021/05/08 02:19:58;;;;;;;6.22;3.80;;;;;;;;;;4967256;28;20244;-56
2021/05/08 02:22:24;;;;;;;9.07;3.92;;;;;;;;;;4969721;28;20024;-56
2021/05/08 02:24:50;;;;;;;8.95;4.07;;;;;;;;;;4967827;28;20960;-56
2021/05/08 02:27:15;;;;;;;14.48;4.32;;;;;;;;;;4970035;28;20064;-55
2021/05/08 02:29:43;;;;;;;9.40;4.45;;;;;;;;;;4966440;28;20050;-59
2021/05/08 02:32:11;;;;;;;10.43;4.25;;;;;;;;;;4968963;28;20706;-55
2021/05/08 02:34:36;;;;;;;11.35;4.38;;;;;;;;;;4951718;28;20098;-56
2021/05/08 02:37:02;;;;;;;9.07;4.65;;;;;;;;;;4969399;28;20137;-55
2021/05/08 02:39:32;;;;;;;9.13;4.25;;;;;;;;;;4951241;28;20048;-56
2021/05/08 02:42:00;;;;;;;18.13;4.78;;;;;;;;;;4971240;28;20121;-56
2021/05/08 02:44:28;;;;;;;14.95;4.68;;;;;;;;;;4969651;28;20026;-55
2021/05/08 02:46:54;;;;;;;17.30;4.75;;;;;;;;;;4972188;28;20066;-55
2021/05/08 02:49:19;;;;;;;9.68;3.92;;;;;;;;;;4968264;28;20129;-56
2021/05/08 02:51:47;;;;;;;7.65;4.38;;;;;;;;;;4972037;28;20113;-56
2021/05/08 02:54:15;;;;;;;12.15;4.53;;;;;;;;;;4964759;28;20053;-57
2021/05/08 02:56:41;;;;;;;25.65;4.70;;;;;;;;;;4969553;28;20041;-56
2021/05/08 02:59:08;;;;;;;47.90;17.83;;;;;;;;;;4955430;28;20034;-56
2021/05/08 03:01:34;;;;;;;120.15;44.15;;;;;;;;;;4966525;28;20030;-56
2021/05/08 03:04:02;;;;;;;231.68;75.25;;;;;;;;;;4969062;28;20120;-55
2021/05/08 03:06:30;;;;;;;212.93;75.45;;;;;;;;;;4983314;28;20481;-57
2021/05/08 03:08:55;;;;;;;152.40;56.75;;;;;;;;;;4966023;28;20058;-57
2021/05/08 03:11:21;;;;;;;111.25;43.67;;;;;;;;;;4970718;28;20122;-56
2021/05/08 03:13:49;;;;;;;109.45;42.13;;;;;;;;;;4950333;28;20576;-56
2021/05/08 03:16:14;;;;;;;54.72;26.00;;;;;;;;;;4951876;28;20027;-57
2021/05/08 03:18:42;;;;;;;41.67;18.90;;;;;;;;;;4984632;28;20030;-56
2021/05/08 03:21:07;;;;;;;31.35;14.45;;;;;;;;;;4967105;28;20504;-56
2021/05/08 03:23:33;;;;;;;25.27;8.23;;;;;;;;;;4985432;28;20375;-56
2021/05/08 03:26:00;;;;;;;16.38;6.68;;;;;;;;;;4970518;28;20076;-55
2021/05/08 03:28:26;;;;;;;13.90;4.95;;;;;;;;;;4973932;28;20907;-57
2021/05/08 03:30:51;;;;;;;12.15;4.80;;;;;;;;;;4974991;28;20096;-56
2021/05/08 03:33:19;;;;;;;16.20;4.63;;;;;;;;;;4974652;28;20906;-56
2021/05/08 03:35:45;;;;;;;9.77;5.15;;;;;;;;;;4975289;28;20026;-54
2021/05/08 03:38:10;;;;;;;10.88;5.15;;;;;;;;;;4972407;28;20066;-57
2021/05/08 03:40:36;;;;;;;15.68;5.82;;;;;;;;;;4973300;28;20041;-56
2021/05/08 03:43:03;;;;;;;10.25;5.07;;;;;;;;;;4974385;28;20529;-56
2021/05/08 03:45:29;;;;;;;10.90;4.53;;;;;;;;;;4974125;28;20069;-56
2021/05/08 03:47:54;;;;;;;15.35;4.88;;;;;;;;;;4958476;28;20577;-55
2021/05/08 03:50:20;;;;;;;15.30;4.47;;;;;;;;;;4957164;28;20049;-57
2021/05/08 03:52:45;;;;;;;18.33;4.57;;;;;;;;;;4959650;28;20042;-55
2021/05/08 03:55:11;;;;;;;16.35;4.57;;;;;;;;;;4957406;28;20101;-57
2021/05/08 03:57:39;;;;;;;14.52;5.75;;;;;;;;;;4974962;28;20442;-54
2021/05/08 04:00:05;;;;;;;11.52;5.32;;;;;;;;;;4975208;28;20661;-56
2021/05/08 04:02:32;;;;;;;10.95;4.82;;;;;;;;;;4956930;28;20112;-55
2021/05/08 04:05:03;;;;;;;19.67;5.72;;;;;;;;;;4989169;28;20042;-56
2021/05/08 04:07:34;;;;;;;13.43;4.95;;;;;;;;;;4988371;28;20042;-55
2021/05/08 04:09:59;;;;;;;8.02;4.82;;;;;;;;;;4972421;28;20038;-57
2021/05/08 04:12:27;;;;;;;11.77;5.68;;;;;;;;;;4988704;28;20030;-56
2021/05/08 04:14:55;;;;;;;13.00;6.00;;;;;;;;;;4958743;28;20038;-56
2021/05/08 04:17:20;;;;;;;14.13;6.25;;;;;;;;;;4974524;28;20042;-56
2021/05/08 04:19:48;;;;;;;18.95;4.95;;;;;;;;;;4973977;28;20070;-56
2021/05/08 04:22:13;;;;;;;10.55;5.28;;;;;;;;;;4989729;28;20033;-59
2021/05/08 04:24:42;;;;;;;14.40;5.90;;;;;;;;;;4974723;28;20114;-57
2021/05/08 04:27:08;;;;;;;13.63;5.72;;;;;;;;;;4991152;28;20034;-56
2021/05/08 04:29:36;;;;;;;9.18;5.55;;;;;;;;;;4971730;28;20052;-57
2021/05/08 04:32:01;;;;;;;11.88;5.35;;;;;;;;;;4957721;28;20109;-57
2021/05/08 04:34:27;;;;;;;9.32;5.35;;;;;;;;;;4957980;28;20513;-56
2021/05/08 04:36:52;;;;;;;9.85;5.68;;;;;;;;;;4974379;28;20026;-57
2021/05/08 04:39:17;;;;;;;13.50;6.13;;;;;;;;;;4969634;28;20035;-56
2021/05/08 04:41:43;;;;;;;12.30;5.05;;;;;;;;;;4971737;28;20034;-57
2021/05/08 04:44:08;;;;;;;7.65;5.03;;;;;;;;;;4955544;28;20811;-57
2021/05/08 04:46:36;;;;;;;16.73;5.65;;;;;;;;;;4971943;28;20084;-56
2021/05/08 04:49:07;;;;;;;7.78;4.55;;;;;;;;;;4953689;28;20031;-56
2021/05/08 04:51:32;;;;;;;10.60;5.60;;;;;;;;;;4969898;28;20049;-57
2021/05/08 04:53:58;;;;;;;7.95;5.25;;;;;;;;;;4986256;28;20500;-56
2021/05/08 04:56:23;;;;;;;14.98;5.63;;;;;;;;;;4973656;28;20042;-56
2021/05/08 04:58:49;;;;;;;15.32;5.53;;;;;;;;;;4973422;28;20072;-56
2021/05/08 05:01:17;;;;;;;10.82;5.30;;;;;;;;;;4971882;28;20034;-57
2021/05/08 05:03:48;;;;;;;13.82;6.13;;;;;;;;;;4969997;28;20481;-56
2021/05/08 05:06:13;;;;;;;13.90;6.28;;;;;;;;;;4971521;28;20049;-58
2021/05/08 05:08:38;;;;;;;10.93;6.15;;;;;;;;;;4954402;28;20042;-56
2021/05/08 05:11:04;;;;;;;12.90;6.63;;;;;;;;;;4988112;28;20037;-56
2021/05/08 05:13:30;;;;;;;17.77;6.07;;;;;;;;;;4970577;28;20125;-56
2021/05/08 05:15:55;;;;;;;26.75;6.75;;;;;;;;;;4951118;28;20031;-56
2021/05/08 05:18:20;;;;;;;11.43;6.90;;;;;;;;;;4954412;28;20497;-57
2021/05/08 05:20:46;;;;;;;14.07;6.80;;;;;;;;;;4986205;28;20102;-58
2021/05/08 05:23:14;;;;;;;11.45;6.43;;;;;;;;;;4969836;28;20140;-57
2021/05/08 05:25:40;;;;;;;16.17;6.72;;;;;;;;;;4951124;28;20401;-56
2021/05/08 05:28:21;;;;;;;10.68;6.38;;;;;;;;;;4971044;28;20030;-57
2021/05/08 05:30:51;;;;;;;11.57;6.27;;;;;;;;;;4971624;28;20046;-59
2021/05/08 05:33:19;;;;;;;10.40;6.13;;;;;;;;;;4968321;28;20039;-56
2021/05/08 05:35:49;;;;;;;15.18;7.55;;;;;;;;;;4970289;28;20025;-57
2021/05/08 05:38:16;;;;;;;11.95;6.70;;;;;;;;;;4969435;28;20033;-58
2021/05/08 05:40:41;;;;;;;16.20;7.00;;;;;;;;;;4969809;28;20030;-56
2021/05/08 05:43:07;;;;;;;13.88;6.20;;;;;;;;;;4970290;28;20596;-58
2021/05/08 05:45:32;;;;;;;19.25;7.85;;;;;;;;;;4964534;28;20681;-57
2021/05/08 05:47:59;;;;;;;16.05;6.30;;;;;;;;;;4968123;28;20042;-58
2021/05/08 05:50:28;;;;;;;11.88;6.18;;;;;;;;;;4980404;28;20038;-57
2021/05/08 05:52:54;;;;;;;12.45;6.10;;;;;;;;;;4970534;28;20042;-57
2021/05/08 05:55:23;;;;;;;13.52;6.80;;;;;;;;;;4968617;28;20045;-56
2021/05/08 05:57:49;;;;;;;12.00;6.30;;;;;;;;;;4969193;28;20038;-55
2021/05/08 06:00:15;;;;;;;10.95;6.50;;;;;;;;;;4968761;28;20048;-56
2021/05/08 06:02:41;;;;;;;13.60;6.15;;;;;;;;;;4983065;28;20030;-58
2021/05/08 06:05:07;;;;;;;11.75;6.25;;;;;;;;;;4967964;28;22074;-58
2021/05/08 06:07:32;;;;;;;9.93;5.68;;;;;;;;;;4951105;28;20036;-58
2021/05/08 06:10:00;;;;;;;13.23;6.07;;;;;;;;;;4952060;28;20089;-58
2021/05/08 06:12:25;;;;;;;11.93;6.63;;;;;;;;;;4969277;28;20149;-58
2021/05/08 06:14:51;;;;;;;13.63;6.63;;;;;;;;;;4980408;28;20397;-58
2021/05/08 06:17:16;;;;;;;8.65;5.30;;;;;;;;;;4985597;28;20041;-58
2021/05/08 06:19:42;;;;;;;13.10;5.18;;;;;;;;;;4968055;28;20552;-57
2021/05/08 06:22:10;;;;;;;10.63;5.88;;;;;;;;;;4967756;28;20065;-58
2021/05/08 06:24:35;;;;;;;8.07;5.13;;;;;;;;;;4936107;28;20046;-58
2021/05/08 06:27:00;;;;;;;13.75;6.00;;;;;;;;;;4966924;28;20077;-59
2021/05/08 06:29:26;;;;;;;13.88;5.15;;;;;;;;;;4967309;28;20974;-59
2021/05/08 06:31:54;;;;;;;5.90;4.63;;;;;;;;;;4952344;28;20034;-59
2021/05/08 06:34:21;;;;;;;8.68;4.80;;;;;;;;;;4982814;28;20756;-58
2021/05/08 06:36:49;;;;;;;6.05;4.53;;;;;;;;;;4969596;28;20030;-59
2021/05/08 06:39:15;;;;;;;6.55;4.60;;;;;;;;;;4965720;28;20042;-60
2021/05/08 06:41:41;;;;;;;7.43;4.53;;;;;;;;;;4967370;28;20042;-60
2021/05/08 06:44:06;;;;;;;8.18;3.88;;;;;;;;;;4981933;28;20052;-61
2021/05/08 06:46:32;;;;;;;8.52;4.68;;;;;;;;;;4966352;28;20030;-59
2021/05/08 06:48:57;;;;;;;9.13;4.93;;;;;;;;;;4965912;28;20038;-60
2021/05/08 06:51:23;;;;;;;10.18;4.90;;;;;;;;;;4950851;28;20386;-59
2021/05/08 06:53:51;;;;;;;6.90;4.68;;;;;;;;;;4965830;28;20069;-60
2021/05/08 06:56:19;;;;;;;6.25;4.38;;;;;;;;;;4967737;28;20036;-60
2021/05/08 06:58:45;;;;;;;5.05;4.43;;;;;;;;;;4982243;28;20502;-60
2021/05/08 07:01:11;;;;;;;8.75;5.13;;;;;;;;;;4965994;28;20033;-60
2021/05/08 07:03:36;;;;;;;7.38;4.63;;;;;;;;;;4968293;28;20034;-59
2021/05/08 07:06:02;;;;;;;11.65;4.88;;;;;;;;;;4966950;28;20939;-60
2021/05/08 07:08:30;;;;;;;11.38;4.60;;;;;;;;;;4967119;28;20081;-59
2021/05/08 07:10:56;;;;;;;10.35;4.90;;;;;;;;;;4968443;28;20049;-59
2021/05/08 07:13:22;;;;;;;8.13;4.78;;;;;;;;;;4967285;28;22009;-60
2021/05/08 07:15:47;;;;;;;10.75;5.00;;;;;;;;;;4948635;28;20030;-60
2021/05/08 07:18:16;;;;;;;11.73;4.88;;;;;;;;;;4967163;28;20034;-59
2021/05/08 07:20:41;;;;;;;11.50;5.28;;;;;;;;;;4966762;28;21107;-60
2021/05/08 07:23:07;;;;;;;7.43;4.78;;;;;;;;;;4968406;28;20036;-59
2021/05/08 07:25:35;;;;;;;6.75;4.82;;;;;;;;;;4966470;28;20038;-59
2021/05/08 07:28:07;;;;;;;7.40;5.10;;;;;;;;;;4950286;28;20037;-61
2021/05/08 07:30:36;;;;;;;6.55;5.30;;;;;;;;;;4968006;28;21312;-59
2021/05/08 07:33:05;;;;;;;10.63;5.05;;;;;;;;;;4968290;28;22204;-61
2021/05/08 07:35:30;;;;;;;10.63;4.70;;;;;;;;;;4984643;28;20030;-60
2021/05/08 07:37:56;;;;;;;8.00;4.18;;;;;;;;;;4963318;28;20107;-61
2021/05/08 07:40:22;;;;;;;7.25;4.18;;;;;;;;;;4950057;28;20125;-58
2021/05/08 07:42:47;;;;;;;6.00;3.78;;;;;;;;;;4948736;28;22095;-60
2021/05/08 07:45:17;;;;;;;8.43;4.28;;;;;;;;;;4964465;28;20149;-61
2021/05/08 07:47:43;;;;;;;4.70;3.47;;;;;;;;;;4965980;28;20052;-60
2021/05/08 07:50:11;;;;;;;7.18;3.63;;;;;;;;;;4946263;28;22206;-59
2021/05/08 07:52:37;;;;;;;7.63;3.78;;;;;;;;;;4965404;28;20056;-61
2021/05/08 07:55:05;;;;;;;6.10;3.72;;;;;;;;;;4964876;28;20600;-58
2021/05/08 07:57:33;;;;;;;7.60;4.40;;;;;;;;;;4968045;28;20042;-61
2021/05/08 07:59:58;;;;;;;6.10;4.55;;;;;;;;;;4966094;28;20034;-60
2021/05/08 08:02:24;;;;;;;7.68;4.20;;;;;;;;;;4968167;28;20023;-60
2021/05/08 08:04:49;;;;;;;7.82;4.15;;;;;;;;;;4966401;28;20054;-60
2021/05/08 08:07:14;;;;;;;8.77;3.75;;;;;;;;;;4966978;28;20113;-61
2021/05/08 08:09:45;;;;;;;6.95;3.83;;;;;;;;;;4982700;28;20045;-61
2021/05/08 08:12:11;;;;;;;11.40;4.15;;;;;;;;;;4984154;28;20065;-62
2021/05/08 08:14:37;;;;;;;4.47;3.75;;;;;;;;;;4986060;28;20131;-61
2021/05/08 08:17:05;;;;;;;4.68;3.67;;;;;;;;;;4970120;28;20049;-60
2021/05/08 08:19:33;;;;;;;7.55;3.95;;;;;;;;;;4972007;28;20049;-61
2021/05/08 08:21:59;;;;;;;4.30;3.40;;;;;;;;;;4965243;28;20117;-61
2021/05/08 08:24:24;;;;;;;7.90;3.10;;;;;;;;;;4952739;28;20045;-60
2021/05/08 08:26:50;;;;;;;5.72;3.63;;;;;;;;;;4970950;28;20121;-59
2021/05/08 08:29:16;;;;;;;6.90;3.42;;;;;;;;;;4968441;28;20050;-64
2021/05/08 08:31:42;;;;;;;5.78;2.83;;;;;;;;;;4970268;28;20034;-61
2021/05/08 08:34:07;;;;;;;5.88;3.00;;;;;;;;;;4968394;28;20029;-60
2021/05/08 08:36:35;;;;;;;3.30;2.78;;;;;;;;;;4955934;28;20062;-60
2021/05/08 08:39:03;;;;;;;5.38;3.03;;;;;;;;;;4951183;28;20745;-59
2021/05/08 08:41:28;;;;;;;6.57;3.33;;;;;;;;;;4971377;28;20030;-60
2021/05/08 08:43:54;;;;;;;10.32;3.08;;;;;;;;;;4969594;28;20042;-60
2021/05/08 08:46:19;;;;;;;5.20;3.58;;;;;;;;;;4969855;28;20056;-61
2021/05/08 08:48:46;;;;;;;5.53;3.47;;;;;;;;;;4968723;28;20137;-60
2021/05/08 08:51:13;;;;;;;7.28;3.30;;;;;;;;;;4952024;28;20054;-59
2021/05/08 08:53:38;;;;;;;5.00;3.42;;;;;;;;;;4969569;28;20049;-60
2021/05/08 08:56:07;;;;;;;4.65;3.45;;;;;;;;;;4986987;28;20038;-61
2021/05/08 08:58:36;;;;;;;6.68;3.17;;;;;;;;;;4971643;28;20434;-60
2021/05/08 09:01:05;;;;;;;5.85;3.45;;;;;;;;;;4968024;28;20038;-62
2021/05/08 09:03:32;;;;;;;6.00;3.08;;;;;;;;;;4972106;28;20632;-61
2021/05/08 09:05:59;;;;;;;11.20;3.22;;;;;;;;;;4953515;28;20049;-60
2021/05/08 09:08:25;;;;;;;4.32;2.80;;;;;;;;;;4985779;28;20113;-60
2021/05/08 09:10:53;;;;;;;6.88;3.17;;;;;;;;;;4970530;28;20041;-60
2021/05/08 09:13:19;;;;;;;4.97;2.70;;;;;;;;;;4970484;28;20038;-61
2021/05/08 09:15:46;;;;;;;3.78;3.05;;;;;;;;;;4971153;28;20033;-60
2021/05/08 09:18:35;;;;;;;7.15;2.85;;;;;;;;;;4953484;28;20583;-62
2021/05/08 09:21:01;;;;;;;6.35;2.92;;;;;;;;;;4970283;28;20033;-61
2021/05/08 09:23:32;;;;;;;6.22;3.17;;;;;;;;;;4983479;28;20083;-62
2021/05/08 09:25:59;;;;;;;3.83;2.78;;;;;;;;;;4968045;28;20038;-61
2021/05/08 09:28:26;;;;;;;6.80;3.10;;;;;;;;;;4968372;28;20034;-61
2021/05/08 09:30:51;;;;;;;7.85;3.13;;;;;;;;;;4981807;28;20077;-59
2021/05/08 09:33:21;;;;;;;5.13;2.83;;;;;;;;;;4951213;28;20061;-62
2021/05/08 09:35:57;;;;;;;8.35;2.88;;;;;;;;;;4970239;28;20065;-61
2021/05/08 09:38:28;;;;;;;4.97;2.58;;;;;;;;;;4970623;28;20030;-61
2021/05/08 09:40:53;;;;;;;8.40;3.00;;;;;;;;;;4968176;28;20034;-62
2021/05/08 09:43:22;;;;;;;5.70;2.80;;;;;;;;;;4969711;28;20968;-61
2021/05/08 09:45:51;;;;;;;4.93;2.40;;;;;;;;;;4967684;28;20184;-61
2021/05/08 09:48:33;;;;;;;7.45;2.88;;;;;;;;;;4952955;28;20026;-62
2021/05/08 09:51:16;;;;;;;2.22;1.95;;;;;;;;;;4968465;28;20129;-60
2021/05/08 09:53:43;;;;;;;6.20;2.77;;;;;;;;;;4970469;28;20042;-61
2021/05/08 09:56:27;;;;;;;5.22;2.70;;;;;;;;;;4965805;28;20037;-60
2021/05/08 09:58:52;;;;;;;4.57;2.50;;;;;;;;;;4969939;28;20030;-62
2021/05/08 10:01:22;;;;;;;4.65;2.80;;;;;;;;;;4953110;28;20042;-62
2021/05/08 10:03:48;;;;;;;5.60;3.22;;;;;;;;;;4965188;28;20042;-60
2021/05/08 10:06:16;;;;;;;5.32;3.30;;;;;;;;;;4949913;28;20039;-62
2021/05/08 10:08:42;;;;;;;5.30;2.92;;;;;;;;;;4961796;28;20050;-62
2021/05/08 10:11:08;;;;;;;5.15;3.47;;;;;;;;;;4958336;28;20061;-62
2021/05/08 10:13:36;;;;;;;6.57;4.07;;;;;;;;;;4970435;28;20038;-60
2021/05/08 10:16:03;;;;;;;6.78;4.18;;;;;;;;;;4966575;28;20097;-60
2021/05/08 10:18:33;;;;;;;8.32;3.90;;;;;;;;;;4966622;28;20041;-62
2021/05/08 10:20:59;;;;;;;9.00;4.18;;;;;;;;;;4966800;28;22070;-59
2021/05/08 10:23:30;;;;;;;9.40;4.43;;;;;;;;;;4968505;28;20045;-60
2021/05/08 10:25:58;;;;;;;8.38;4.45;;;;;;;;;;4952562;28;20042;-61
2021/05/08 10:28:25;;;;;;;7.85;4.28;;;;;;;;;;4948439;28;20045;-60
2021/05/08 10:30:51;;;;;;;10.10;4.78;;;;;;;;;;4967945;28;20157;-61
2021/05/08 10:33:18;;;;;;;8.18;4.82;;;;;;;;;;4951431;28;20042;-61
2021/05/08 10:35:48;;;;;;;8.85;4.65;;;;;;;;;;4968953;28;20596;-60
2021/05/08 10:38:18;;;;;;;9.13;4.80;;;;;;;;;;4966628;28;20026;-60
2021/05/08 10:40:48;;;;;;;9.27;4.18;;;;;;;;;;4980095;28;20070;-60
2021/05/08 10:43:37;;;;;;;9.70;5.30;;;;;;;;;;4961526;28;20039;-61
2021/05/08 10:46:03;;;;;;;7.28;4.63;;;;;;;;;;4947989;28;20053;-61
2021/05/08 10:48:29;;;;;;;6.78;4.43;;;;;;;;;;4964707;28;20050;-59
2021/05/08 10:51:02;;;;;;;8.57;4.88;;;;;;;;;;4948947;28;20058;-61
2021/05/08 10:53:37;;;;;;;8.77;4.72;;;;;;;;;;4984128;28;21029;-61
2021/05/08 10:56:03;;;;;;;11.05;5.00;;;;;;;;;;4963894;28;20034;-60
2021/05/08 10:58:35;;;;;;;13.65;5.90;;;;;;;;;;4979869;28;20120;-59
2021/05/08 11:01:04;;;;;;;6.25;4.30;;;;;;;;;;4964758;28;20195;-60
2021/05/08 11:03:31;;;;;;;11.02;5.38;;;;;;;;;;4965224;28;20076;-59
2021/05/08 11:06:03;;;;;;;7.07;4.38;;;;;;;;;;4963969;28;20037;-59
2021/05/08 11:08:31;;;;;;;10.30;5.20;;;;;;;;;;4965044;28;20062;-60
2021/05/08 11:11:00;;;;;;;7.95;4.95;;;;;;;;;;4966027;28;20756;-59
2021/05/08 11:13:46;;;;;;;11.02;5.78;;;;;;;;;;4967826;28;20042;-60
2021/05/08 11:16:18;;;;;;;9.52;5.15;;;;;;;;;;4968275;28;20030;-61
2021/05/08 11:18:47;;;;;;;6.82;4.40;;;;;;;;;;4949470;28;20096;-59
2021/05/08 11:21:17;;;;;;;9.73;5.25;;;;;;;;;;4967246;28;20034;-59
2021/05/08 11:23:56;;;;;;;10.85;5.60;;;;;;;;;;4966985;28;20042;-59
2021/05/08 11:26:28;;;;;;;8.30;5.50;;;;;;;;;;4967661;28;20034;-59
2021/05/08 11:28:54;;;;;;;9.50;5.80;;;;;;;;;;4965021;28;20038;-59
2021/05/08 11:31:39;;;;;;;9.25;5.82;;;;;;;;;;4968539;28;20080;-58
2021/05/08 11:34:10;;;;;;;8.55;5.20;;;;;;;;;;4966955;28;20042;-58
2021/05/08 11:36:56;;;;;;;8.18;5.43;;;;;;;;;;4967961;28;20034;-59
2021/05/08 11:39:39;;;;;;;7.22;4.93;;;;;;;;;;4965690;28;20029;-59
2021/05/08 11:42:31;;;;;;;12.48;5.45;;;;;;;;;;4965063;28;20077;-60
2021/05/08 11:44:58;;;;;;;10.07;4.88;;;;;;;;;;4965449;28;20658;-58
2021/05/08 11:47:36;;;;;;;10.15;3.90;;;;;;;;;;4966759;28;20038;-59
2021/05/08 11:50:11;;;;;;;8.52;4.07;;;;;;;;;;4984394;28;20045;-58
2021/05/08 11:52:38;;;;;;;9.98;4.50;;;;;;;;;;4968494;28;20109;-60
2021/05/08 11:55:16;;;;;;;5.15;3.92;;;;;;;;;;4970587;28;20048;-60
2021/05/08 11:57:47;;;;;;;9.32;3.80;;;;;;;;;;4984512;28;20037;-60
2021/05/08 12:00:19;;;;;;;8.60;3.65;;;;;;;;;;4985037;28;20046;-59
2021/05/08 12:02:45;;;;;;;8.10;3.35;;;;;;;;;;4970825;28;20049;-58
2021/05/08 12:05:13;;;;;;;5.05;3.53;;;;;;;;;;4969633;28;20177;-60
2021/05/08 12:07:43;;;;;;;7.28;3.75;;;;;;;;;;4953869;28;20035;-58
2021/05/08 12:10:16;;;;;;;5.45;3.38;;;;;;;;;;4968861;28;20034;-60
2021/05/08 12:12:53;;;;;;;4.65;3.22;;;;;;;;;;4952284;28;20069;-59
2021/05/08 12:15:35;;;;;;;7.88;3.10;;;;;;;;;;4968629;28;20022;-60
2021/05/08 12:18:02;;;;;;;5.35;3.13;;;;;;;;;;4970179;28;20035;-60
2021/05/08 12:20:29;;;;;;;8.13;3.13;;;;;;;;;;4966170;28;20497;-60
2021/05/08 12:22:56;;;;;;;5.35;3.00;;;;;;;;;;4969844;28;20034;-60
2021/05/08 12:25:23;;;;;;;4.13;3.25;;;;;;;;;;4968928;28;20489;-59
2021/05/08 12:27:48;;;;;;;5.88;3.17;;;;;;;;;;4968892;28;20130;-60
2021/05/08 12:30:17;;;;;;;5.25;3.50;;;;;;;;;;4969572;28;20102;-59
2021/05/08 12:32:54;;;;;;;9.02;3.90;;;;;;;;;;4970109;28;20042;-60
2021/05/08 12:35:20;;;;;;;4.93;3.58;;;;;;;;;;4968646;28;20031;-60
2021/05/08 12:37:47;;;;;;;6.72;3.83;;;;;;;;;;4966496;28;20165;-59
2021/05/08 12:40:15;;;;;;;5.20;3.55;;;;;;;;;;4966713;28;20037;-60
2021/05/08 12:42:45;;;;;;;9.02;4.25;;;;;;;;;;4985735;28;20034;-59
2021/05/08 12:45:14;;;;;;;8.95;4.30;;;;;;;;;;4967240;28;20042;-58
2021/05/08 12:47:48;;;;;;;6.30;4.20;;;;;;;;;;4971086;28;20038;-59
2021/05/08 12:50:31;;;;;;;7.53;4.07;;;;;;;;;;4969358;28;20041;-59
2021/05/08 12:53:00;;;;;;;8.88;4.60;;;;;;;;;;4983200;28;20022;-59
2021/05/08 12:55:29;;;;;;;6.38;4.00;;;;;;;;;;4965014;28;20069;-60
2021/05/08 12:58:06;;;;;;;8.20;4.88;;;;;;;;;;4967882;28;20045;-60
2021/05/08 13:01:01;;;;;;;5.85;3.58;;;;;;;;;;4968007;28;20030;-58
2021/05/08 13:06:04;;;;;;;11.30;4.55;;;;;;;;;;4969645;28;20057;-60
2021/05/08 13:08:41;;;;;;;9.57;4.80;;;;;;;;;;4953397;28;20032;-60
2021/05/08 13:11:07;;;;;;;8.68;4.43;;;;;;;;;;4965329;28;20104;-61
2021/05/08 13:13:32;;;;;;;7.22;4.10;;;;;;;;;;4951361;28;20086;-58
2021/05/08 13:15:59;;;;;;;6.32;4.20;;;;;;;;;;4967668;28;20154;-57
2021/05/08 13:18:25;;;;;;;8.05;4.40;;;;;;;;;;4968088;28;20038;-58
2021/05/08 13:20:51;;;;;;;7.38;4.82;;;;;;;;;;4964376;28;20026;-57
2021/05/08 13:23:16;;;;;;;6.93;4.20;;;;;;;;;;4968630;28;20689;-58
2021/05/08 13:25:42;;;;;;;11.60;4.32;;;;;;;;;;4967208;28;20042;-58
2021/05/08 13:28:26;;;;;;;8.63;4.57;;;;;;;;;;4968705;28;20061;-58
2021/05/08 13:31:10;;;;;;;7.10;4.68;;;;;;;;;;4970631;28;20145;-58
2021/05/08 13:33:54;;;;;;;7.85;4.72;;;;;;;;;;4980797;28;22226;-59
2021/05/08 13:36:38;;;;;;;8.05;4.32;;;;;;;;;;4969675;28;20130;-57
2021/05/08 13:39:22;;;;;;;6.05;3.90;;;;;;;;;;4963216;28;21229;-58
2021/05/08 13:42:06;;;;;;;7.25;4.45;;;;;;;;;;4970745;28;20506;-57
2021/05/08 13:44:50;;;;;;;10.45;4.03;;;;;;;;;;4967750;28;20133;-58
2021/05/08 13:47:34;;;;;;;13.32;4.80;;;;;;;;;;4968999;28;20884;-57
2021/05/08 13:50:18;;;;;;;6.13;3.75;;;;;;;;;;4966945;28;20045;-56
2021/05/08 13:53:04;;;;;;;6.28;4.18;;;;;;;;;;4968841;28;20811;-58
2021/05/08 13:55:48;;;;;;;7.00;4.45;;;;;;;;;;4977791;28;20119;-57
2021/05/08 13:58:32;;;;;;;9.95;4.80;;;;;;;;;;4966184;28;20044;-57
2021/05/08 14:01:16;;;;;;;10.55;4.95;;;;;;;;;;4969145;28;20640;-56
2021/05/08 14:04:00;;;;;;;6.63;3.58;;;;;;;;;;4954950;28;20053;-57
2021/05/08 14:06:45;;;;;;;10.60;4.65;;;;;;;;;;4967753;28;20173;-57
2021/05/08 14:09:29;;;;;;;7.13;4.88;;;;;;;;;;4970257;28;20159;-57
2021/05/08 14:12:15;;;;;;;9.43;5.57;;;;;;;;;;4967729;28;20087;-56
2021/05/08 14:15:00;;;;;;;8.77;4.93;;;;;;;;;;4968628;28;20097;-57
2021/05/08 14:17:44;;;;;;;8.90;5.10;;;;;;;;;;4967534;28;20045;-55
2021/05/08 14:20:30;;;;;;;7.93;4.70;;;;;;;;;;4967253;28;20441;-56
2021/05/08 14:23:15;;;;;;;11.18;5.15;;;;;;;;;;4964336;28;20053;-54
2021/05/08 14:25:58;;;;;;;12.23;5.35;;;;;;;;;;4965843;28;20104;-57
2021/05/08 14:28:43;;;;;;;9.98;5.03;;;;;;;;;;4968939;28;20044;-58
2021/05/08 14:31:27;;;;;;;10.07;5.13;;;;;;;;;;4981326;28;20064;-56
2021/05/08 14:34:14;;;;;;;8.93;5.45;;;;;;;;;;4966957;28;21992;-55
2021/05/08 14:36:59;;;;;;;15.75;6.20;;;;;;;;;;4966175;28;20326;-57
2021/05/08 14:39:43;;;;;;;16.55;6.38;;;;;;;;;;4966707;28;20050;-54
2021/05/08 14:42:28;;;;;;;11.50;6.80;;;;;;;;;;4981474;28;20136;-58
2021/05/08 14:45:13;;;;;;;10.98;6.18;;;;;;;;;;4951595;28;20062;-54
2021/05/08 14:47:57;;;;;;;14.13;7.15;;;;;;;;;;4972372;28;20041;-54
2021/05/08 14:50:41;;;;;;;16.00;6.85;;;;;;;;;;4967209;28;21094;-56